Terminal Aerodrome Forecast
Issued by NWS

Home | Current Version | Previous Version | Text Only | Print | Product List | Glossary On
Versions: 1 2 3 4 5 6 7 8 9 10 11 12 13
086
FTUS42 TJSJ 221734
TAFJBQ
TAF
TJBQ 221734Z 2218/2318 05012KT P6SM FEW030 SCT070
     FM222330 12003KT P6SM SKC
     FM231400 07010KT P6SM SCT030
      AMD NOT SKED 2302/2311=

USA.gov is the U.S. government's official web portal to all federal, state and local government web resources and services.